createdAt,value
2023-03-29T00:00:56.648Z,74
2023-03-29T00:02:03.493Z,74
2023-03-29T00:03:10.389Z,73
2023-03-29T00:04:17.094Z,74
2023-03-29T00:05:23.873Z,73
2023-03-29T00:06:30.653Z,74
2023-03-29T00:07:37.513Z,74
2023-03-29T00:08:44.309Z,74
2023-03-29T00:09:51.270Z,74
2023-03-29T00:10:58.157Z,74
2023-03-29T00:12:04.986Z,74
2023-03-29T00:13:11.814Z,74
2023-03-29T00:14:18.648Z,74
2023-03-29T00:15:25.473Z,75
2023-03-29T00:16:32.331Z,75
2023-03-29T00:17:39.094Z,75
2023-03-29T00:18:45.881Z,75
2023-03-29T00:19:52.692Z,75
2023-03-29T00:20:59.928Z,75
2023-03-29T00:22:06.509Z,75
2023-03-29T00:23:13.389Z,74
2023-03-29T00:24:20.189Z,75
2023-03-29T00:25:26.958Z,75
2023-03-29T00:26:33.740Z,75
2023-03-29T00:27:40.713Z,75
2023-03-29T00:28:47.591Z,75
2023-03-29T00:29:54.417Z,75
2023-03-29T00:31:01.502Z,75
2023-03-29T00:32:10.806Z,76
2023-03-29T00:33:17.696Z,76
2023-03-29T00:34:24.548Z,76
2023-03-29T00:35:31.415Z,76
2023-03-29T00:36:38.193Z,77
2023-03-29T00:37:45.013Z,76
2023-03-29T00:38:51.818Z,76
2023-03-29T00:39:58.684Z,76
2023-03-29T00:41:05.457Z,76
2023-03-29T00:42:12.258Z,75
2023-03-29T00:43:19.107Z,75
2023-03-29T00:44:25.901Z,75
2023-03-29T00:45:42.888Z,75
2023-03-29T00:46:49.833Z,75
2023-03-29T00:47:56.551Z,75
2023-03-29T00:49:06.096Z,75
2023-03-29T00:50:12.932Z,75
2023-03-29T00:51:22.527Z,75
2023-03-29T00:52:29.350Z,75
2023-03-29T00:53:36.205Z,75
2023-03-29T00:54:42.997Z,75
2023-03-29T00:55:49.788Z,75
2023-03-29T00:56:59.213Z,76
2023-03-29T00:58:06.002Z,75
2023-03-29T00:59:12.820Z,75
2023-03-29T01:00:19.717Z,76
2023-03-29T01:01:26.596Z,76
2023-03-29T01:02:41.426Z,76
2023-03-29T01:03:48.382Z,76
2023-03-29T01:04:55.466Z,76
2023-03-29T01:06:02.437Z,76
2023-03-29T01:07:09.468Z,77
2023-03-29T01:08:19.220Z,77
2023-03-29T01:09:26.023Z,76
2023-03-29T01:10:32.925Z,77
2023-03-29T01:11:44.738Z,77
2023-03-29T01:12:51.610Z,77
2023-03-29T01:13:58.535Z,77
2023-03-29T01:15:05.316Z,77
2023-03-29T01:16:12.239Z,76
2023-03-29T01:17:19.107Z,77
2023-03-29T01:18:25.954Z,77
2023-03-29T01:19:32.972Z,77
2023-03-29T01:20:42.722Z,77
2023-03-29T01:21:52.600Z,77
2023-03-29T01:22:59.353Z,77
2023-03-29T01:24:16.352Z,77
2023-03-29T01:25:31.085Z,77
2023-03-29T01:26:43.002Z,77
2023-03-29T01:27:59.806Z,77
2023-03-29T01:29:09.637Z,77
2023-03-29T01:30:16.473Z,77
2023-03-29T01:31:31.166Z,77
2023-03-29T01:32:38.108Z,77
2023-03-29T01:33:49.969Z,77
2023-03-29T01:34:56.729Z,77
2023-03-29T01:36:03.555Z,77
2023-03-29T01:37:15.502Z,77
2023-03-29T01:38:27.325Z,77
2023-03-29T01:39:34.112Z,77
2023-03-29T01:40:40.888Z,77
2023-03-29T01:41:47.854Z,77
2023-03-29T01:43:04.821Z,77
2023-03-29T01:44:14.784Z,77
2023-03-29T01:45:24.545Z,78
2023-03-29T01:46:34.288Z,78
2023-03-29T01:47:48.871Z,78
2023-03-29T01:49:00.766Z,78
2023-03-29T01:50:07.581Z,78
2023-03-29T01:51:19.615Z,78
2023-03-29T01:52:29.119Z,78
2023-03-29T01:53:39.184Z,78
2023-03-29T01:54:48.896Z,78
2023-03-29T01:55:58.423Z,78
2023-03-29T01:57:10.389Z,78
2023-03-29T01:58:17.059Z,78
2023-03-29T01:59:26.615Z,78
2023-03-29T02:00:33.492Z,78
2023-03-29T02:01:40.389Z,78
2023-03-29T02:02:50.215Z,79
2023-03-29T02:03:56.968Z,79
2023-03-29T02:05:03.809Z,79
2023-03-29T02:06:10.770Z,79
2023-03-29T02:07:17.624Z,79
2023-03-29T02:08:24.505Z,79
2023-03-29T02:09:31.302Z,79
2023-03-29T02:10:38.125Z,79
2023-03-29T02:11:44.960Z,80
2023-03-29T02:12:51.893Z,80
2023-03-29T02:13:58.694Z,80
2023-03-29T02:15:05.510Z,80
2023-03-29T02:16:15.292Z,80
2023-03-29T02:17:22.006Z,80
2023-03-29T02:18:28.793Z,80
2023-03-29T02:19:35.713Z,80
2023-03-29T02:20:42.696Z,81
2023-03-29T02:21:49.437Z,81
2023-03-29T02:22:56.222Z,81
2023-03-29T02:24:08.065Z,81
2023-03-29T02:25:14.863Z,81
2023-03-29T02:26:21.730Z,81
2023-03-29T02:27:28.523Z,81
2023-03-29T02:28:35.472Z,81
2023-03-29T02:29:42.266Z,81
2023-03-29T02:30:49.107Z,81
2023-03-29T02:32:00.989Z,81
2023-03-29T02:33:12.842Z,81
2023-03-29T02:34:24.918Z,81
2023-03-29T02:35:38.240Z,81
2023-03-29T02:36:45.058Z,81
2023-03-29T02:37:57.017Z,81
2023-03-29T02:39:04.003Z,81
2023-03-29T02:40:10.835Z,81
2023-03-29T02:41:17.606Z,81
2023-03-29T02:42:24.465Z,81
2023-03-29T02:43:31.261Z,82
2023-03-29T02:44:38.151Z,81
2023-03-29T02:45:45.116Z,82
2023-03-29T02:46:51.937Z,82
2023-03-29T02:47:58.680Z,82
2023-03-29T02:49:05.485Z,82
2023-03-29T02:50:14.938Z,82
2023-03-29T02:51:21.924Z,82
2023-03-29T02:52:28.736Z,82
2023-03-29T02:53:35.544Z,81
2023-03-29T02:54:42.324Z,81
2023-03-29T02:55:49.224Z,81
2023-03-29T02:56:56.008Z,81
2023-03-29T02:58:02.833Z,81
2023-03-29T02:59:09.628Z,81
2023-03-29T03:00:16.543Z,81
2023-03-29T03:01:23.502Z,81
2023-03-29T03:02:30.232Z,81
2023-03-29T03:03:37.201Z,81
2023-03-29T03:04:43.994Z,81
2023-03-29T03:05:50.890Z,81
2023-03-29T03:06:57.696Z,81
2023-03-29T03:08:04.533Z,81
2023-03-29T03:09:11.386Z,81
2023-03-29T03:10:18.196Z,81
2023-03-29T03:11:24.993Z,81
2023-03-29T03:12:31.827Z,81
2023-03-29T03:13:38.571Z,81
2023-03-29T03:14:45.415Z,81
2023-03-29T03:15:52.323Z,81
2023-03-29T03:16:59.113Z,81
2023-03-29T03:18:05.971Z,81
2023-03-29T03:19:12.725Z,81
2023-03-29T03:20:19.553Z,81
2023-03-29T03:21:26.411Z,81
2023-03-29T03:22:33.220Z,81
2023-03-29T03:23:40.030Z,81
2023-03-29T03:24:46.830Z,81
2023-03-29T03:25:53.636Z,81
2023-03-29T03:27:00.628Z,81
2023-03-29T03:28:07.466Z,81
2023-03-29T03:29:14.342Z,82
2023-03-29T03:30:21.182Z,82
2023-03-29T03:31:28.030Z,82
2023-03-29T03:32:34.873Z,82
2023-03-29T03:33:41.880Z,82
2023-03-29T03:34:48.762Z,82
2023-03-29T03:35:55.561Z,81
2023-03-29T03:37:07.440Z,82
2023-03-29T03:38:14.250Z,82
2023-03-29T03:39:21.076Z,82
2023-03-29T03:40:28.372Z,82
2023-03-29T03:41:34.765Z,81
2023-03-29T03:42:41.549Z,81
2023-03-29T03:43:51.404Z,81
2023-03-29T03:44:58.223Z,81
2023-03-29T03:46:05.103Z,81
2023-03-29T03:47:11.934Z,81
2023-03-29T03:48:18.783Z,81
2023-03-29T03:49:25.595Z,81
2023-03-29T03:50:32.460Z,81
2023-03-29T03:51:39.266Z,81
2023-03-29T03:52:46.150Z,81
2023-03-29T03:53:53.054Z,81
2023-03-29T03:54:59.856Z,80
2023-03-29T03:56:06.683Z,80
2023-03-29T03:57:13.554Z,80
2023-03-29T03:58:20.330Z,80
2023-03-29T03:59:27.174Z,80
2023-03-29T04:00:34.054Z,80
2023-03-29T04:01:40.944Z,81
2023-03-29T04:02:47.817Z,81
2023-03-29T04:03:54.633Z,81
2023-03-29T04:05:01.434Z,81
2023-03-29T04:06:08.571Z,81
2023-03-29T04:07:15.381Z,81
2023-03-29T04:08:22.191Z,81
2023-03-29T04:09:29.058Z,82
2023-03-29T04:10:36.049Z,82
2023-03-29T04:11:42.993Z,82
2023-03-29T04:12:49.727Z,82
2023-03-29T04:13:56.482Z,82
2023-03-29T04:15:03.289Z,83
2023-03-29T04:16:10.449Z,83
2023-03-29T04:17:17.350Z,82
2023-03-29T04:18:24.288Z,83
2023-03-29T04:19:31.113Z,82
2023-03-29T04:20:37.897Z,82
2023-03-29T04:21:44.682Z,82
2023-03-29T04:22:51.526Z,82
2023-03-29T04:23:58.440Z,82
2023-03-29T04:25:05.307Z,82
2023-03-29T04:26:12.163Z,82
2023-03-29T04:27:18.969Z,82
2023-03-29T04:28:25.942Z,81
2023-03-29T04:29:32.788Z,81
2023-03-29T04:30:39.589Z,80
2023-03-29T04:31:46.468Z,80
2023-03-29T04:32:53.255Z,80
2023-03-29T04:34:00.569Z,80
2023-03-29T04:35:06.950Z,81
2023-03-29T04:36:13.791Z,81
2023-03-29T04:37:20.638Z,81
2023-03-29T04:38:27.463Z,81
2023-03-29T04:39:34.363Z,81
2023-03-29T04:40:41.145Z,81
2023-03-29T04:41:48.051Z,81
2023-03-29T04:42:54.840Z,82
2023-03-29T04:44:01.671Z,81
2023-03-29T04:45:08.625Z,81
2023-03-29T04:46:15.562Z,81
2023-03-29T04:47:22.288Z,81
2023-03-29T04:48:29.114Z,81
2023-03-29T04:49:35.973Z,81
2023-03-29T04:50:42.780Z,81
2023-03-29T04:51:49.644Z,81
2023-03-29T04:52:56.493Z,81
2023-03-29T04:54:03.221Z,80
2023-03-29T04:55:09.986Z,81
2023-03-29T04:56:16.809Z,81
2023-03-29T04:57:23.715Z,80
2023-03-29T04:58:32.350Z,81
2023-03-29T04:59:37.425Z,81
2023-03-29T05:00:44.420Z,81
2023-03-29T05:01:51.279Z,81
2023-03-29T05:02:58.042Z,81
2023-03-29T05:04:04.876Z,81
2023-03-29T05:05:11.772Z,81
2023-03-29T05:06:18.585Z,81
2023-03-29T05:07:25.508Z,81
2023-03-29T05:08:32.280Z,81
2023-03-29T05:09:39.287Z,81
2023-03-29T05:10:46.282Z,81
2023-03-29T05:11:53.076Z,80
2023-03-29T05:12:59.864Z,80
2023-03-29T05:14:06.625Z,80
2023-03-29T05:15:13.548Z,80
2023-03-29T05:16:23.025Z,80
2023-03-29T05:17:29.876Z,80
2023-03-29T05:18:36.594Z,80
2023-03-29T05:19:43.422Z,80
2023-03-29T05:20:50.280Z,80
2023-03-29T05:21:57.184Z,80
2023-03-29T05:23:04.126Z,80
2023-03-29T05:24:10.972Z,80
2023-03-29T05:25:17.729Z,80
2023-03-29T05:26:24.558Z,80
2023-03-29T05:27:31.440Z,80
2023-03-29T05:28:38.280Z,80
2023-03-29T05:29:45.063Z,80
2023-03-29T05:30:51.942Z,80
2023-03-29T05:32:01.772Z,80
2023-03-29T05:33:08.590Z,79
2023-03-29T05:34:15.351Z,79
2023-03-29T05:35:22.253Z,79
2023-03-29T05:36:29.078Z,80
2023-03-29T05:37:35.854Z,80
2023-03-29T05:38:42.734Z,79
2023-03-29T05:39:49.586Z,80
2023-03-29T05:40:56.421Z,80
2023-03-29T05:42:03.301Z,80
2023-03-29T05:43:10.074Z,80
2023-03-29T05:44:16.938Z,79
2023-03-29T05:45:23.816Z,78
2023-03-29T05:46:30.820Z,78
2023-03-29T05:47:37.692Z,78
2023-03-29T05:48:44.388Z,79
2023-03-29T05:49:51.174Z,79
2023-03-29T05:50:57.996Z,78
2023-03-29T05:52:04.992Z,78
2023-03-29T05:53:11.924Z,78
2023-03-29T05:54:18.704Z,78
2023-03-29T05:55:25.553Z,78
2023-03-29T05:56:32.776Z,78
2023-03-29T05:57:39.580Z,78
2023-03-29T05:58:46.432Z,78
2023-03-29T05:59:53.261Z,77
2023-03-29T06:01:00.326Z,77
2023-03-29T06:02:07.018Z,77
2023-03-29T06:03:20.137Z,77
2023-03-29T06:04:20.930Z,77
2023-03-29T06:05:27.682Z,77
2023-03-29T06:06:34.553Z,77
2023-03-29T06:07:41.346Z,77
2023-03-29T06:08:48.518Z,77
2023-03-29T06:09:55.350Z,76
2023-03-29T06:11:04.422Z,76
2023-03-29T06:12:09.008Z,76
2023-03-29T06:13:15.798Z,76
2023-03-29T06:14:22.680Z,76
2023-03-29T06:15:29.542Z,75
2023-03-29T06:16:36.417Z,75
2023-03-29T06:17:43.196Z,75
2023-03-29T06:18:49.963Z,75
2023-03-29T06:19:56.827Z,77
2023-03-29T06:21:04.412Z,76
2023-03-29T06:22:12.106Z,75
2023-03-29T06:23:17.620Z,75
2023-03-29T06:24:24.386Z,75
2023-03-29T06:25:31.380Z,74
2023-03-29T06:26:38.278Z,74
2023-03-29T06:27:45.111Z,74
2023-03-29T06:28:52.468Z,73
2023-03-29T06:29:59.167Z,73
2023-03-29T06:31:06.456Z,73
2023-03-29T06:32:12.998Z,73
2023-03-29T06:33:19.805Z,73
2023-03-29T06:34:26.593Z,72
2023-03-29T06:35:33.474Z,72
2023-03-29T06:36:40.274Z,71
2023-03-29T06:37:47.235Z,71
2023-03-29T06:38:54.113Z,71
2023-03-29T06:40:00.871Z,71
2023-03-29T06:41:07.815Z,71
2023-03-29T06:42:20.969Z,70
2023-03-29T06:43:24.408Z,70
2023-03-29T06:44:31.186Z,70
2023-03-29T06:45:38.129Z,70
2023-03-29T06:46:45.110Z,70
2023-03-29T06:47:51.905Z,69
2023-03-29T06:48:58.660Z,68
2023-03-29T06:50:05.508Z,68
2023-03-29T06:51:12.490Z,68
2023-03-29T06:52:19.508Z,68
2023-03-29T06:53:26.132Z,68
2023-03-29T06:54:32.899Z,67
2023-03-29T06:55:39.725Z,68
2023-03-29T06:56:46.584Z,67
2023-03-29T06:57:53.351Z,68
2023-03-29T06:59:00.203Z,67
2023-03-29T07:00:07.024Z,66
2023-03-29T07:01:19.136Z,67
2023-03-29T07:02:25.960Z,66
2023-03-29T07:03:32.797Z,65
2023-03-29T07:04:39.783Z,65
2023-03-29T07:05:46.551Z,66
2023-03-29T07:06:53.332Z,66
2023-03-29T07:08:03.186Z,65
2023-03-29T07:09:09.972Z,65
2023-03-29T07:10:16.937Z,65
2023-03-29T07:11:28.819Z,65
2023-03-29T07:12:35.762Z,65
2023-03-29T07:13:42.776Z,65
2023-03-29T07:14:49.372Z,65
2023-03-29T07:15:56.430Z,65
2023-03-29T07:17:03.054Z,65
2023-03-29T07:18:10.053Z,65
2023-03-29T07:19:16.870Z,64
2023-03-29T07:20:23.719Z,64
2023-03-29T07:21:30.729Z,64
2023-03-29T07:22:37.332Z,64
2023-03-29T07:23:44.317Z,64
2023-03-29T07:24:51.201Z,63
2023-03-29T07:25:58.271Z,63
2023-03-29T07:27:08.158Z,63
2023-03-29T07:28:15.057Z,63
2023-03-29T07:29:21.837Z,63
2023-03-29T07:30:31.083Z,63
2023-03-29T07:31:35.608Z,63
2023-03-29T07:32:42.426Z,62
2023-03-29T07:33:49.373Z,63
2023-03-29T07:34:56.143Z,63
2023-03-29T07:36:03.196Z,63
2023-03-29T07:37:10.235Z,63
2023-03-29T07:38:17.125Z,62
2023-03-29T07:39:23.924Z,63
2023-03-29T07:40:30.920Z,63
2023-03-29T07:41:37.733Z,63
2023-03-29T07:42:44.566Z,62
2023-03-29T07:43:51.361Z,61
2023-03-29T07:44:58.179Z,62
2023-03-29T07:46:05.094Z,62
2023-03-29T07:47:11.816Z,62
2023-03-29T07:48:18.658Z,61
2023-03-29T07:49:25.499Z,61
2023-03-29T07:50:32.395Z,61
2023-03-29T07:51:39.171Z,61
2023-03-29T07:52:45.956Z,60
2023-03-29T07:53:52.753Z,60
2023-03-29T07:54:59.531Z,60
2023-03-29T07:56:06.434Z,61
2023-03-29T07:57:13.299Z,60
2023-03-29T07:58:20.066Z,60
2023-03-29T07:59:26.936Z,60
2023-03-29T08:00:33.872Z,60
2023-03-29T08:01:40.762Z,60
2023-03-29T08:02:47.657Z,59
2023-03-29T08:03:54.586Z,58
2023-03-29T08:05:01.416Z,58
2023-03-29T08:06:08.386Z,58
2023-03-29T08:07:17.021Z,59
2023-03-29T08:08:24.737Z,59
2023-03-29T08:09:31.623Z,59
2023-03-29T08:10:38.458Z,59
2023-03-29T08:11:45.264Z,59
2023-03-29T08:12:52.225Z,58
2023-03-29T08:13:58.987Z,58
2023-03-29T08:15:05.825Z,58
2023-03-29T08:16:12.722Z,58
2023-03-29T08:17:19.453Z,57
2023-03-29T08:18:26.386Z,57
2023-03-29T08:19:33.277Z,57
2023-03-29T08:20:40.095Z,57
2023-03-29T08:21:46.873Z,57
2023-03-29T08:22:53.694Z,57
2023-03-29T08:24:00.569Z,56
2023-03-29T08:25:07.652Z,56
2023-03-29T08:26:14.427Z,56
2023-03-29T08:27:21.291Z,56
2023-03-29T08:28:28.112Z,55
2023-03-29T08:29:35.364Z,55
2023-03-29T08:30:42.498Z,55
2023-03-29T08:31:49.434Z,55
2023-03-29T08:32:56.232Z,55
2023-03-29T08:34:03.050Z,55
2023-03-29T08:35:09.866Z,55
2023-03-29T08:36:16.842Z,55
2023-03-29T08:37:23.596Z,55
2023-03-29T08:38:33.082Z,54
2023-03-29T08:39:39.812Z,54
2023-03-29T08:40:46.646Z,54
2023-03-29T08:41:53.444Z,55
2023-03-29T08:43:03.321Z,54
2023-03-29T08:44:17.752Z,53
2023-03-29T08:45:29.548Z,53
2023-03-29T08:46:41.510Z,53
2023-03-29T08:47:58.386Z,53
2023-03-29T08:49:10.214Z,52
2023-03-29T08:50:16.969Z,53
2023-03-29T08:51:23.736Z,52
2023-03-29T08:52:33.307Z,53
2023-03-29T08:53:45.104Z,52
2023-03-29T08:54:56.947Z,52
2023-03-29T08:56:03.853Z,52
2023-03-29T08:57:10.845Z,52
2023-03-29T08:58:22.624Z,52
2023-03-29T08:59:29.451Z,51
2023-03-29T09:00:36.394Z,52
2023-03-29T09:01:43.244Z,51
2023-03-29T09:02:50.109Z,51
2023-03-29T09:03:56.911Z,51
2023-03-29T09:05:03.694Z,51
2023-03-29T09:06:20.614Z,51
2023-03-29T09:07:27.459Z,52
2023-03-29T09:08:34.273Z,51
2023-03-29T09:09:48.966Z,50
2023-03-29T09:10:55.802Z,50
2023-03-29T09:12:10.543Z,51
2023-03-29T09:13:17.426Z,50
2023-03-29T09:14:32.172Z,50
2023-03-29T09:15:49.080Z,50
2023-03-29T09:16:55.854Z,49
2023-03-29T09:18:12.802Z,50
2023-03-29T09:19:22.597Z,49
2023-03-29T09:20:39.582Z,49
2023-03-29T09:21:49.101Z,50
2023-03-29T09:22:58.657Z,49
2023-03-29T09:24:11.013Z,49
2023-03-29T09:25:23.732Z,48
2023-03-29T09:26:40.662Z,48
2023-03-29T09:27:55.400Z,47
2023-03-29T09:29:09.519Z,47
2023-03-29T09:30:19.345Z,47
2023-03-29T09:31:31.178Z,47
2023-03-29T09:32:40.648Z,47
2023-03-29T09:33:47.579Z,47
2023-03-29T09:34:59.464Z,47
2023-03-29T09:36:14.327Z,48
2023-03-29T09:37:31.228Z,49
2023-03-29T09:38:38.087Z,49
2023-03-29T09:39:44.885Z,49
2023-03-29T09:40:51.655Z,50
2023-03-29T09:41:58.472Z,47
2023-03-29T09:43:08.129Z,46
2023-03-29T09:44:30.062Z,44
2023-03-29T09:45:27.572Z,45
2023-03-29T09:46:34.354Z,45
2023-03-29T09:47:41.233Z,46
2023-03-29T09:48:55.815Z,46
2023-03-29T09:50:02.653Z,45
2023-03-29T09:51:14.535Z,45
2023-03-29T09:52:21.305Z,45
2023-03-29T09:53:28.190Z,46
2023-03-29T09:54:35.020Z,46
2023-03-29T09:55:41.895Z,45
2023-03-29T09:56:48.752Z,46
2023-03-29T09:57:55.453Z,45
2023-03-29T09:59:02.300Z,45
2023-03-29T10:00:09.156Z,46
2023-03-29T10:01:16.319Z,46
2023-03-29T10:02:23.025Z,45
2023-03-29T10:03:29.887Z,46
2023-03-29T10:04:36.710Z,46
2023-03-29T10:05:43.489Z,45
2023-03-29T10:06:50.287Z,43
2023-03-29T10:07:57.032Z,44
2023-03-29T10:09:03.870Z,44
2023-03-29T10:10:10.640Z,45
2023-03-29T10:11:22.497Z,45
2023-03-29T10:12:32.309Z,45
2023-03-29T10:13:39.131Z,45
2023-03-29T10:14:53.755Z,45
2023-03-29T10:15:58.629Z,45
2023-03-29T10:17:08.178Z,45
2023-03-29T10:18:22.711Z,46
2023-03-29T10:19:29.523Z,45
2023-03-29T10:20:36.361Z,46
2023-03-29T10:21:43.350Z,45
2023-03-29T10:22:50.515Z,46
2023-03-29T10:24:00.615Z,45
2023-03-29T10:25:07.559Z,45
2023-03-29T10:26:17.363Z,45
2023-03-29T10:27:27.202Z,46
2023-03-29T10:28:33.973Z,47
2023-03-29T10:29:40.773Z,46
2023-03-29T10:30:47.648Z,45
2023-03-29T10:31:57.626Z,46
2023-03-29T10:33:04.508Z,45
2023-03-29T10:34:11.314Z,45
2023-03-29T10:35:18.102Z,45
2023-03-29T10:36:24.875Z,45
2023-03-29T10:37:31.683Z,44
2023-03-29T10:38:38.554Z,45
2023-03-29T10:39:45.355Z,45
2023-03-29T10:40:52.147Z,46
2023-03-29T10:41:58.936Z,45
2023-03-29T10:43:05.776Z,45
2023-03-29T10:44:15.225Z,44
2023-03-29T10:45:29.614Z,43
2023-03-29T10:46:36.625Z,43
2023-03-29T10:47:43.320Z,45
2023-03-29T10:48:50.059Z,45
2023-03-29T10:50:04.676Z,45
2023-03-29T10:51:11.470Z,45
2023-03-29T10:52:18.279Z,45
2023-03-29T10:53:25.001Z,45
2023-03-29T10:54:31.752Z,45
2023-03-29T10:55:38.634Z,44
2023-03-29T10:56:45.552Z,45
2023-03-29T10:57:52.240Z,44
2023-03-29T10:58:59.001Z,45
2023-03-29T11:00:10.840Z,45
2023-03-29T11:01:20.517Z,45
2023-03-29T11:02:30.061Z,45
2023-03-29T11:03:36.851Z,45
2023-03-29T11:04:48.752Z,44
2023-03-29T11:06:05.661Z,44
2023-03-29T11:07:15.167Z,44
2023-03-29T11:08:32.159Z,44
2023-03-29T11:09:43.962Z,45
2023-03-29T11:11:01.244Z,45
2023-03-29T11:12:15.399Z,45
2023-03-29T11:13:22.297Z,44
2023-03-29T11:14:34.115Z,44
2023-03-29T11:15:45.965Z,45
2023-03-29T11:17:00.436Z,44
2023-03-29T11:18:12.389Z,43
2023-03-29T11:19:29.267Z,44
2023-03-29T11:20:46.163Z,44
2023-03-29T11:22:03.150Z,44
2023-03-29T11:23:17.801Z,44
2023-03-29T11:24:29.621Z,45
2023-03-29T11:25:41.440Z,45
2023-03-29T11:26:58.651Z,45
2023-03-29T11:28:15.629Z,44
2023-03-29T11:29:22.393Z,44
2023-03-29T11:30:29.170Z,43
2023-03-29T11:31:43.651Z,43
2023-03-29T11:33:00.584Z,43
2023-03-29T11:34:10.511Z,43
2023-03-29T11:35:27.447Z,43
2023-03-29T11:36:39.308Z,44
2023-03-29T11:37:53.821Z,44
2023-03-29T11:39:10.698Z,44
2023-03-29T11:40:22.522Z,42
2023-03-29T11:41:39.391Z,42
2023-03-29T11:42:46.318Z,43
2023-03-29T11:43:54.739Z,44
2023-03-29T11:45:05.155Z,43
2023-03-29T11:46:19.625Z,43
2023-03-29T11:47:31.450Z,43
2023-03-29T11:48:38.183Z,43
2023-03-29T11:49:50.458Z,43
2023-03-29T11:51:00.396Z,43
2023-03-29T11:52:12.292Z,44
2023-03-29T11:53:21.778Z,43
2023-03-29T11:54:28.533Z,43
2023-03-29T11:55:40.378Z,43
2023-03-29T11:56:47.198Z,42
2023-03-29T11:58:04.153Z,43
2023-03-29T11:59:16.955Z,42
2023-03-29T12:00:26.883Z,42
2023-03-29T12:01:33.789Z,42
2023-03-29T12:02:40.799Z,42
2023-03-29T12:03:50.457Z,43
2023-03-29T12:04:57.266Z,43
2023-03-29T12:06:04.090Z,43
2023-03-29T12:07:21.046Z,44
2023-03-29T12:08:32.914Z,43
2023-03-29T12:09:42.566Z,43
2023-03-29T12:10:52.225Z,43
2023-03-29T12:12:04.108Z,44
2023-03-29T12:13:10.953Z,44
2023-03-29T12:14:17.867Z,43
2023-03-29T12:15:27.343Z,44
2023-03-29T12:16:34.238Z,43
2023-03-29T12:17:48.843Z,44
2023-03-29T12:19:03.727Z,44
2023-03-29T12:20:20.721Z,44
2023-03-29T12:21:27.497Z,44
2023-03-29T12:22:34.337Z,44
2023-03-29T12:23:41.129Z,44
2023-03-29T12:24:47.905Z,43
2023-03-29T12:25:54.681Z,44
2023-03-29T12:27:04.169Z,44
2023-03-29T12:28:11.033Z,44
2023-03-29T12:29:22.906Z,43
2023-03-29T12:30:34.764Z,43
2023-03-29T12:31:49.269Z,42
2023-03-29T12:33:06.257Z,43
2023-03-29T12:34:23.056Z,43
2023-03-29T12:35:39.992Z,43
2023-03-29T12:36:56.951Z,43
2023-03-29T12:38:13.917Z,43
2023-03-29T12:39:25.819Z,43
2023-03-29T12:40:32.609Z,42
2023-03-29T12:41:39.518Z,42
2023-03-29T12:42:46.380Z,43
2023-03-29T12:43:55.950Z,42
2023-03-29T12:45:05.752Z,42
2023-03-29T12:46:17.783Z,42
2023-03-29T12:47:24.710Z,43
2023-03-29T12:48:31.596Z,42
2023-03-29T12:49:38.493Z,42
2023-03-29T12:50:45.306Z,43
2023-03-29T12:51:55.218Z,43
2023-03-29T12:53:02.090Z,43
2023-03-29T12:54:16.823Z,42
2023-03-29T12:55:23.585Z,42
2023-03-29T12:56:33.163Z,43
2023-03-29T12:57:42.797Z,43
2023-03-29T12:58:59.881Z,43
2023-03-29T13:00:16.782Z,42
2023-03-29T13:01:26.919Z,41
2023-03-29T13:02:33.588Z,42
2023-03-29T13:03:40.338Z,42
2023-03-29T13:04:53.143Z,41
2023-03-29T13:06:00.004Z,41
2023-03-29T13:07:06.802Z,40
2023-03-29T13:08:23.691Z,41
2023-03-29T13:09:30.532Z,41
2023-03-29T13:10:37.314Z,41
2023-03-29T13:11:44.090Z,41
2023-03-29T13:12:55.964Z,42
2023-03-29T13:14:02.847Z,41
2023-03-29T13:15:12.343Z,41
2023-03-29T13:16:19.181Z,42
2023-03-29T13:17:33.825Z,42
2023-03-29T13:18:50.695Z,42
2023-03-29T13:20:02.536Z,41
2023-03-29T13:21:19.460Z,41
2023-03-29T13:22:28.979Z,41
2023-03-29T13:23:40.860Z,41
2023-03-29T13:24:47.705Z,41
2023-03-29T13:25:59.699Z,40
2023-03-29T13:27:11.509Z,41
2023-03-29T13:28:23.276Z,40
2023-03-29T13:29:38.255Z,40
2023-03-29T13:30:53.070Z,41
2023-03-29T13:32:04.982Z,41
2023-03-29T13:33:19.622Z,40
2023-03-29T13:34:36.573Z,40
2023-03-29T13:35:43.442Z,40
2023-03-29T13:37:00.397Z,41
2023-03-29T13:38:07.197Z,41
2023-03-29T13:39:24.121Z,41
2023-03-29T13:40:31.029Z,41
2023-03-29T13:41:42.945Z,41
2023-03-29T13:42:49.816Z,41
2023-03-29T13:43:59.562Z,41
2023-03-29T13:45:06.464Z,41
2023-03-29T13:46:13.366Z,41
2023-03-29T13:47:20.149Z,40
2023-03-29T13:48:32.054Z,41
2023-03-29T13:49:38.921Z,41
2023-03-29T13:50:45.768Z,41
2023-03-29T13:51:55.347Z,41
2023-03-29T13:53:12.320Z,41
2023-03-29T13:54:19.172Z,40
2023-03-29T13:55:36.166Z,41
2023-03-29T13:56:41.026Z,41
2023-03-29T13:57:55.562Z,41
2023-03-29T13:59:05.221Z,40
2023-03-29T14:00:20.040Z,40
2023-03-29T14:01:26.878Z,40
2023-03-29T14:02:38.823Z,39
2023-03-29T14:03:51.277Z,41
2023-03-29T14:04:58.122Z,41
2023-03-29T14:06:05.213Z,40
2023-03-29T14:07:11.849Z,40
2023-03-29T14:08:18.812Z,41
2023-03-29T14:09:30.700Z,41
2023-03-29T14:10:37.647Z,41
2023-03-29T14:11:44.393Z,41
2023-03-29T14:12:51.185Z,40
2023-03-29T14:13:57.942Z,40
2023-03-29T14:15:04.790Z,40
2023-03-29T14:16:11.950Z,41
2023-03-29T14:17:18.636Z,41
2023-03-29T14:18:25.470Z,40
2023-03-29T14:19:32.352Z,40
2023-03-29T14:20:39.140Z,41
2023-03-29T14:21:46.013Z,41
2023-03-29T14:22:52.941Z,41
2023-03-29T14:23:59.762Z,40
2023-03-29T14:25:06.634Z,40
2023-03-29T14:26:16.208Z,41
2023-03-29T14:27:23.028Z,40
2023-03-29T14:28:29.899Z,40
2023-03-29T14:29:36.700Z,41
2023-03-29T14:30:43.588Z,40
2023-03-29T14:31:50.487Z,41
2023-03-29T14:32:57.264Z,41
2023-03-29T14:34:04.184Z,41
2023-03-29T14:35:11.038Z,41
2023-03-29T14:36:17.977Z,41
2023-03-29T14:37:24.702Z,41
2023-03-29T14:38:31.512Z,41
2023-03-29T14:39:38.374Z,41
2023-03-29T14:40:45.340Z,41
2023-03-29T14:41:52.202Z,41
2023-03-29T14:42:58.971Z,41
2023-03-29T14:44:05.773Z,41
2023-03-29T14:45:12.675Z,40
2023-03-29T14:46:19.614Z,40
2023-03-29T14:47:26.585Z,41
2023-03-29T14:48:39.091Z,41
2023-03-29T14:49:50.711Z,40
2023-03-29T14:50:57.919Z,40
2023-03-29T14:52:04.718Z,41
2023-03-29T14:53:11.515Z,40
2023-03-29T14:54:23.393Z,41
2023-03-29T14:55:33.198Z,41
2023-03-29T14:56:39.982Z,40
2023-03-29T14:57:46.759Z,40
2023-03-29T14:58:53.539Z,40
2023-03-29T15:00:00.416Z,40
2023-03-29T15:01:07.349Z,39
2023-03-29T15:02:19.299Z,39
2023-03-29T15:03:26.248Z,39
2023-03-29T15:04:32.875Z,39
2023-03-29T15:05:39.669Z,39
2023-03-29T15:06:46.427Z,39
2023-03-29T15:07:56.235Z,38
2023-03-29T15:09:06.365Z,39
2023-03-29T15:10:09.762Z,39
2023-03-29T15:11:21.708Z,39
2023-03-29T15:12:28.471Z,39
2023-03-29T15:13:35.368Z,39
2023-03-29T15:14:42.127Z,39
2023-03-29T15:15:49.053Z,38
2023-03-29T15:16:55.862Z,38
2023-03-29T15:18:05.659Z,39
2023-03-29T15:19:12.364Z,39
2023-03-29T15:20:19.155Z,39
2023-03-29T15:21:25.926Z,40
2023-03-29T15:22:32.745Z,39
2023-03-29T15:23:39.656Z,39
2023-03-29T15:24:51.543Z,40
2023-03-29T15:25:58.490Z,39
2023-03-29T15:27:10.285Z,40
2023-03-29T15:28:17.088Z,40
2023-03-29T15:29:27.305Z,40
2023-03-29T15:30:36.546Z,40
2023-03-29T15:31:43.408Z,40
2023-03-29T15:32:50.169Z,40
2023-03-29T15:33:57.145Z,40
2023-03-29T15:35:08.992Z,40
2023-03-29T15:36:23.721Z,39
2023-03-29T15:37:30.581Z,39
2023-03-29T15:38:43.747Z,40
2023-03-29T15:39:44.302Z,39
2023-03-29T15:40:51.137Z,39
2023-03-29T15:41:57.936Z,39
2023-03-29T15:43:04.664Z,39
2023-03-29T15:44:11.477Z,39
2023-03-29T15:45:18.395Z,39
2023-03-29T15:46:25.249Z,39
2023-03-29T15:47:32.020Z,39
2023-03-29T15:48:39.925Z,39
2023-03-29T15:49:46.737Z,38
2023-03-29T15:50:53.557Z,39
2023-03-29T15:52:00.337Z,39
2023-03-29T15:53:14.977Z,39
2023-03-29T15:54:14.064Z,39
2023-03-29T15:55:20.832Z,39
2023-03-29T15:56:27.665Z,39
2023-03-29T15:57:34.617Z,39
2023-03-29T15:58:41.488Z,40
2023-03-29T15:59:48.311Z,40
2023-03-29T16:00:55.208Z,40
2023-03-29T16:02:02.226Z,40
2023-03-29T16:03:09.055Z,40
2023-03-29T16:04:15.847Z,40
2023-03-29T16:05:22.682Z,41
2023-03-29T16:06:29.478Z,42
2023-03-29T16:07:36.248Z,42
2023-03-29T16:08:43.023Z,42
2023-03-29T16:09:49.989Z,42
2023-03-29T16:10:56.772Z,42
2023-03-29T16:12:03.694Z,42
2023-03-29T16:13:10.511Z,43
2023-03-29T16:14:17.329Z,43